Time;durP1;ratioP1;P1;durP2;ratioP2;P2;SDS_P1;SDS_P2;PMS_P1;PMS_P2;Temp;Humidity;BMP_temperature;BMP_pressure;BME280_temperature;BME280_humidity;BME280_pressure;Samples;Min_cycle;Max_cycle;Signal;HPM_P1;HPM_P2
2024/04/16 00:01:25;;;;;;;6.18;2.33;;;;;;;;;;5555340;25;20005;-60
2024/04/16 00:03:51;;;;;;;6.72;1.85;;;;;;;;;;5561211;25;20007;-60
2024/04/16 00:06:17;;;;;;;4.43;2.42;;;;;;;;;;5524933;25;20030;-60
2024/04/16 00:08:43;;;;;;;3.58;1.77;;;;;;;;;;5542279;25;20009;-59
2024/04/16 00:11:09;;;;;;;6.80;2.67;;;;;;;;;;5525815;26;20465;-59
2024/04/16 00:13:35;;;;;;;6.25;2.35;;;;;;;;;;5526849;25;19993;-60
2024/04/16 00:16:02;;;;;;;7.93;2.70;;;;;;;;;;5559426;25;20004;-60
2024/04/16 00:18:28;;;;;;;7.38;2.80;;;;;;;;;;5537709;25;20004;-60
2024/04/16 00:20:53;;;;;;;5.10;3.20;;;;;;;;;;5530625;25;20072;-60
2024/04/16 00:23:19;;;;;;;6.78;2.92;;;;;;;;;;5547569;25;20436;-59
2024/04/16 00:25:45;;;;;;;9.20;2.83;;;;;;;;;;5559377;25;20804;-60
2024/04/16 00:28:11;;;;;;;14.25;3.38;;;;;;;;;;5541726;25;20393;-60
2024/04/16 00:30:37;;;;;;;8.70;3.45;;;;;;;;;;5561501;25;20008;-60
2024/04/16 00:33:03;;;;;;;6.43;3.40;;;;;;;;;;5530776;25;19997;-60
2024/04/16 00:35:29;;;;;;;7.88;3.45;;;;;;;;;;5528846;25;20001;-60
2024/04/16 00:37:55;;;;;;;7.10;3.25;;;;;;;;;;5545759;25;20011;-60
2024/04/16 00:40:21;;;;;;;8.15;3.35;;;;;;;;;;5544578;25;20038;-60
2024/04/16 00:42:53;;;;;;;7.20;2.97;;;;;;;;;;5525234;26;20011;-60
2024/04/16 00:45:19;;;;;;;6.45;3.05;;;;;;;;;;5549973;25;20003;-60
2024/04/16 00:47:46;;;;;;;13.90;4.18;;;;;;;;;;5551166;25;20025;-60
2024/04/16 00:50:13;;;;;;;8.18;3.47;;;;;;;;;;5551320;25;20321;-60
2024/04/16 00:52:39;;;;;;;11.88;2.92;;;;;;;;;;5525192;25;20337;-59
2024/04/16 00:55:06;;;;;;;9.52;3.45;;;;;;;;;;5524220;25;20070;-60
2024/04/16 00:57:33;;;;;;;7.95;3.40;;;;;;;;;;5554417;25;20001;-60
2024/04/16 00:59:59;;;;;;;7.80;3.85;;;;;;;;;;5536501;25;20015;-60
2024/04/16 01:02:25;;;;;;;5.40;3.03;;;;;;;;;;5556977;25;19997;-60
2024/04/16 01:04:51;;;;;;;4.15;3.10;;;;;;;;;;5556039;25;20029;-60
2024/04/16 01:07:17;;;;;;;6.78;3.42;;;;;;;;;;5546200;25;20066;-59
2024/04/16 01:09:43;;;;;;;11.05;3.65;;;;;;;;;;5531464;25;20009;-59
2024/04/16 01:12:09;;;;;;;8.30;3.00;;;;;;;;;;5523022;25;20362;-60
2024/04/16 01:14:35;;;;;;;8.00;3.50;;;;;;;;;;5534760;25;20420;-60
2024/04/16 01:17:01;;;;;;;5.68;3.60;;;;;;;;;;5553780;25;19993;-60
2024/04/16 01:19:27;;;;;;;10.05;3.33;;;;;;;;;;5545634;25;20008;-60
2024/04/16 01:21:53;;;;;;;7.93;3.72;;;;;;;;;;5526118;25;20001;-60
2024/04/16 01:24:20;;;;;;;9.07;3.22;;;;;;;;;;5523973;25;20061;-58
2024/04/16 01:26:47;;;;;;;13.20;4.15;;;;;;;;;;5525011;25;20013;-61
2024/04/16 01:29:12;;;;;;;6.85;3.88;;;;;;;;;;5555938;25;20049;-56
2024/04/16 01:31:38;;;;;;;8.35;3.60;;;;;;;;;;5548984;25;19993;-56
2024/04/16 01:34:04;;;;;;;8.80;3.22;;;;;;;;;;5533959;25;20002;-57
2024/04/16 01:36:30;;;;;;;7.75;3.42;;;;;;;;;;5540729;25;19997;-57
2024/04/16 01:38:56;;;;;;;12.50;2.97;;;;;;;;;;5530789;25;21143;-58
2024/04/16 01:41:22;;;;;;;7.72;3.55;;;;;;;;;;5544458;25;20398;-57
2024/04/16 01:43:48;;;;;;;7.82;3.17;;;;;;;;;;5530341;25;19997;-56
2024/04/16 01:46:14;;;;;;;6.10;3.53;;;;;;;;;;5528720;25;20005;-57
2024/04/16 01:48:40;;;;;;;7.07;3.28;;;;;;;;;;5524764;25;20009;-56
2024/04/16 01:51:06;;;;;;;5.03;3.03;;;;;;;;;;5545960;25;20015;-56
2024/04/16 01:53:32;;;;;;;6.25;2.65;;;;;;;;;;5526398;25;20324;-56
2024/04/16 01:56:01;;;;;;;5.57;2.90;;;;;;;;;;5558116;25;19993;-56
2024/04/16 01:58:27;;;;;;;7.95;3.25;;;;;;;;;;5523286;25;20001;-56
2024/04/16 02:00:59;;;;;;;7.30;2.70;;;;;;;;;;5547528;25;19997;-55
2024/04/16 02:03:25;;;;;;;9.38;3.33;;;;;;;;;;5541488;25;20001;-56
2024/04/16 02:05:51;;;;;;;8.25;3.25;;;;;;;;;;5524298;25;20433;-56
2024/04/16 02:08:18;;;;;;;10.77;3.45;;;;;;;;;;5541322;25;20341;-57
2024/04/16 02:10:54;;;;;;;6.60;3.20;;;;;;;;;;5537375;25;19997;-56
2024/04/16 02:13:20;;;;;;;8.90;3.17;;;;;;;;;;5523410;25;20008;-56
2024/04/16 02:15:46;;;;;;;6.82;3.38;;;;;;;;;;5524584;25;20441;-55
2024/04/16 02:18:11;;;;;;;8.23;2.95;;;;;;;;;;5529982;25;20067;-56
2024/04/16 02:20:37;;;;;;;11.20;3.40;;;;;;;;;;5556365;25;20005;-56
2024/04/16 02:23:03;;;;;;;7.13;3.38;;;;;;;;;;5559939;25;20001;-56
2024/04/16 02:25:29;;;;;;;6.53;3.53;;;;;;;;;;5559917;25;20033;-56
2024/04/16 02:27:55;;;;;;;4.80;3.38;;;;;;;;;;5535994;25;19997;-55
2024/04/16 02:30:21;;;;;;;6.65;3.33;;;;;;;;;;5526050;25;20365;-56
2024/04/16 02:32:47;;;;;;;5.82;2.70;;;;;;;;;;5527965;25;20357;-55
2024/04/16 02:35:13;;;;;;;9.60;3.83;;;;;;;;;;5527824;25;20089;-58
2024/04/16 02:37:39;;;;;;;8.43;3.67;;;;;;;;;;5539570;25;19997;-56
2024/04/16 02:40:05;;;;;;;7.60;2.90;;;;;;;;;;5552403;25;20005;-57
2024/04/16 02:42:31;;;;;;;11.00;3.30;;;;;;;;;;5544093;25;20008;-59
2024/04/16 02:44:57;;;;;;;5.00;2.85;;;;;;;;;;5527637;25;20016;-59
2024/04/16 02:47:23;;;;;;;6.97;2.95;;;;;;;;;;5527439;25;20017;-59
2024/04/16 02:49:49;;;;;;;9.20;2.92;;;;;;;;;;5532641;25;20023;-58
2024/04/16 02:52:15;;;;;;;6.88;2.78;;;;;;;;;;5535389;25;20008;-60
2024/04/16 02:54:41;;;;;;;8.60;2.58;;;;;;;;;;5562911;25;19997;-59
2024/04/16 02:57:07;;;;;;;4.55;2.70;;;;;;;;;;5548535;25;20433;-60
2024/04/16 02:59:33;;;;;;;6.65;2.55;;;;;;;;;;5545829;25;20322;-59
2024/04/16 03:01:59;;;;;;;7.03;2.75;;;;;;;;;;5533032;25;20375;-59
2024/04/16 03:04:25;;;;;;;7.55;2.45;;;;;;;;;;5545649;25;20004;-60
2024/04/16 03:06:51;;;;;;;4.03;2.55;;;;;;;;;;5553042;25;19994;-59
2024/04/16 03:09:17;;;;;;;5.03;3.45;;;;;;;;;;5526769;25;20037;-60
2024/04/16 03:11:43;;;;;;;5.93;2.60;;;;;;;;;;5528146;25;20015;-59
2024/04/16 03:14:09;;;;;;;5.35;2.58;;;;;;;;;;5562982;25;20437;-60
2024/04/16 03:16:35;;;;;;;4.00;2.47;;;;;;;;;;5547870;25;19993;-59
2024/04/16 03:19:01;;;;;;;9.13;2.90;;;;;;;;;;5548762;25;20068;-60
2024/04/16 03:21:27;;;;;;;3.65;2.55;;;;;;;;;;5526764;25;20015;-60
2024/04/16 03:23:52;;;;;;;6.60;2.38;;;;;;;;;;5525865;25;20013;-60
2024/04/16 03:26:18;;;;;;;4.55;2.25;;;;;;;;;;5527313;25;20441;-60
2024/04/16 03:28:44;;;;;;;4.57;2.70;;;;;;;;;;5533516;25;20382;-60
2024/04/16 03:31:11;;;;;;;4.68;1.90;;;;;;;;;;5531641;25;20073;-60
2024/04/16 03:33:37;;;;;;;6.40;2.13;;;;;;;;;;5526478;25;20005;-60
2024/04/16 03:36:03;;;;;;;5.03;2.60;;;;;;;;;;5532278;25;19993;-60
2024/04/16 03:38:29;;;;;;;5.72;2.50;;;;;;;;;;5551021;25;20755;-58
2024/04/16 03:41:00;;;;;;;4.72;2.30;;;;;;;;;;5537813;25;20002;-59
2024/04/16 03:43:27;;;;;;;3.58;1.98;;;;;;;;;;5540438;25;19993;-59
2024/04/16 03:45:53;;;;;;;6.80;2.38;;;;;;;;;;5539753;25;20068;-57
2024/04/16 03:48:19;;;;;;;5.78;2.20;;;;;;;;;;5555698;25;20452;-58
2024/04/16 03:50:45;;;;;;;4.13;2.25;;;;;;;;;;5526494;25;19998;-60
2024/04/16 03:53:11;;;;;;;9.10;2.20;;;;;;;;;;5542397;25;20009;-59
2024/04/16 03:55:37;;;;;;;9.98;2.10;;;;;;;;;;5526519;25;20038;-59
2024/04/16 03:58:03;;;;;;;5.82;1.80;;;;;;;;;;5525788;25;20337;-59
2024/04/16 04:03:16;;;;;;;9.23;2.08;;;;;;;;;;5531787;25;20003;-59
2024/04/16 04:05:43;;;;;;;3.65;1.75;;;;;;;;;;5546294;25;20009;-59
2024/04/16 04:08:09;;;;;;;3.42;1.83;;;;;;;;;;5551319;25;19990;-60
2024/04/16 04:10:35;;;;;;;2.70;1.75;;;;;;;;;;5538045;25;19997;-59
2024/04/16 04:13:01;;;;;;;7.75;2.53;;;;;;;;;;5544409;25;20001;-57
2024/04/16 04:15:27;;;;;;;4.40;2.22;;;;;;;;;;5549247;25;20004;-60
2024/04/16 04:17:53;;;;;;;4.00;1.80;;;;;;;;;;5547792;25;20332;-60
2024/04/16 04:20:19;;;;;;;2.95;1.77;;;;;;;;;;5561739;25;20076;-59
2024/04/16 04:22:45;;;;;;;5.13;1.80;;;;;;;;;;5556366;25;19992;-59
2024/04/16 04:25:11;;;;;;;4.63;2.13;;;;;;;;;;5544874;25;20001;-59
2024/04/16 04:27:41;;;;;;;2.67;1.88;;;;;;;;;;5561405;25;20297;-59
2024/04/16 04:30:07;;;;;;;4.45;1.77;;;;;;;;;;5553450;25;20005;-58
2024/04/16 04:32:33;;;;;;;5.45;2.20;;;;;;;;;;5531854;25;20041;-59
2024/04/16 04:35:00;;;;;;;4.65;1.88;;;;;;;;;;5541100;25;20020;-59
2024/04/16 04:37:26;;;;;;;3.47;1.90;;;;;;;;;;5548326;25;21273;-59
2024/04/16 04:39:52;;;;;;;8.48;2.30;;;;;;;;;;5544400;25;20004;-59
2024/04/16 04:42:18;;;;;;;4.90;1.90;;;;;;;;;;5527158;25;20034;-60
2024/04/16 04:44:44;;;;;;;4.03;1.98;;;;;;;;;;5551758;25;20145;-59
2024/04/16 04:47:10;;;;;;;6.28;1.70;;;;;;;;;;5551143;25;19997;-59
2024/04/16 04:49:36;;;;;;;5.35;2.25;;;;;;;;;;5547358;25;20005;-59
2024/04/16 04:52:02;;;;;;;7.07;2.88;;;;;;;;;;5537787;25;20405;-60
2024/04/16 04:54:28;;;;;;;3.38;2.08;;;;;;;;;;5551609;25;20000;-60
2024/04/16 04:56:54;;;;;;;4.65;2.25;;;;;;;;;;5546901;25;20398;-60
2024/04/16 04:59:20;;;;;;;4.53;2.40;;;;;;;;;;5549261;25;20460;-58
2024/04/16 05:01:46;;;;;;;6.03;2.40;;;;;;;;;;5558989;25;20420;-58
2024/04/16 05:04:11;;;;;;;5.90;2.42;;;;;;;;;;5552442;25;20018;-57
2024/04/16 05:06:38;;;;;;;5.13;2.20;;;;;;;;;;5544519;25;20069;-58
2024/04/16 05:09:05;;;;;;;5.68;2.88;;;;;;;;;;5555430;25;20140;-58
2024/04/16 05:11:31;;;;;;;9.75;2.92;;;;;;;;;;5537908;25;20020;-59
2024/04/16 05:13:57;;;;;;;7.13;3.42;;;;;;;;;;5545788;25;20028;-58
2024/04/16 05:16:24;;;;;;;8.82;2.67;;;;;;;;;;5538658;25;20069;-58
2024/04/16 05:18:50;;;;;;;6.65;3.00;;;;;;;;;;5547389;25;20004;-58
2024/04/16 05:21:15;;;;;;;5.25;2.67;;;;;;;;;;5534582;25;20069;-58
2024/04/16 05:23:44;;;;;;;6.65;3.08;;;;;;;;;;5542773;25;20016;-58
2024/04/16 05:26:10;;;;;;;4.47;2.85;;;;;;;;;;5557485;25;20493;-58
2024/04/16 05:28:36;;;;;;;7.15;3.13;;;;;;;;;;5546639;25;20008;-58
2024/04/16 05:31:02;;;;;;;9.15;3.25;;;;;;;;;;5529674;25;19997;-58
2024/04/16 05:33:27;;;;;;;5.30;3.22;;;;;;;;;;5546793;25;19997;-58
2024/04/16 05:35:53;;;;;;;3.80;2.80;;;;;;;;;;5545325;25;20025;-59
2024/04/16 05:38:20;;;;;;;6.35;2.72;;;;;;;;;;5548435;25;20601;-58
2024/04/16 05:40:46;;;;;;;7.38;3.42;;;;;;;;;;5554882;25;20433;-58
2024/04/16 05:43:12;;;;;;;6.35;2.78;;;;;;;;;;5532942;25;20340;-58
2024/04/16 05:45:38;;;;;;;6.63;2.72;;;;;;;;;;5541043;25;19997;-58
2024/04/16 05:48:04;;;;;;;4.53;2.53;;;;;;;;;;5536313;25;20319;-58
2024/04/16 05:50:30;;;;;;;10.23;3.13;;;;;;;;;;5537070;25;20037;-58
2024/04/16 05:52:56;;;;;;;6.00;2.70;;;;;;;;;;5557108;25;20000;-58
2024/04/16 05:55:22;;;;;;;5.47;2.47;;;;;;;;;;5556894;25;20022;-59
2024/04/16 05:57:48;;;;;;;5.20;2.42;;;;;;;;;;5552231;25;20070;-58
2024/04/16 06:00:14;;;;;;;4.22;2.40;;;;;;;;;;5549531;25;19993;-58
2024/04/16 06:02:40;;;;;;;3.38;2.38;;;;;;;;;;5559621;25;20440;-58
2024/04/16 06:05:06;;;;;;;5.25;2.35;;;;;;;;;;5554066;25;20008;-58
2024/04/16 06:07:32;;;;;;;5.50;2.75;;;;;;;;;;5543726;25;20012;-58
2024/04/16 06:09:58;;;;;;;7.13;2.83;;;;;;;;;;5536806;25;20432;-59
2024/04/16 06:12:24;;;;;;;7.35;3.08;;;;;;;;;;5550876;25;19993;-59
2024/04/16 06:14:50;;;;;;;4.10;2.70;;;;;;;;;;5541518;25;19993;-59
2024/04/16 06:17:16;;;;;;;4.90;2.50;;;;;;;;;;5548716;25;20003;-59
2024/04/16 06:19:45;;;;;;;5.55;3.00;;;;;;;;;;5561529;25;20401;-58
2024/04/16 06:22:11;;;;;;;6.20;2.97;;;;;;;;;;5542332;25;20013;-58
2024/04/16 06:24:37;;;;;;;8.40;2.95;;;;;;;;;;5562803;25;20071;-59
2024/04/16 06:27:03;;;;;;;5.20;2.40;;;;;;;;;;5548783;25;20012;-58
2024/04/16 06:29:29;;;;;;;8.00;3.28;;;;;;;;;;5535402;25;20301;-59
2024/04/16 06:31:55;;;;;;;6.15;2.90;;;;;;;;;;5563377;25;20001;-59
2024/04/16 06:34:21;;;;;;;6.47;3.28;;;;;;;;;;5563071;25;20011;-58
2024/04/16 06:36:47;;;;;;;5.30;2.85;;;;;;;;;;5563505;25;20344;-58
2024/04/16 06:39:13;;;;;;;9.43;3.05;;;;;;;;;;5560845;25;20032;-58
2024/04/16 06:41:39;;;;;;;5.38;3.22;;;;;;;;;;5545229;25;20001;-58
2024/04/16 06:44:05;;;;;;;4.10;2.88;;;;;;;;;;5551627;25;20045;-59
2024/04/16 06:46:31;;;;;;;11.05;3.28;;;;;;;;;;5552423;25;20334;-58
2024/04/16 06:48:57;;;;;;;6.82;2.80;;;;;;;;;;5563108;25;20021;-58
2024/04/16 06:51:23;;;;;;;9.82;3.05;;;;;;;;;;5563517;25;20069;-59
2024/04/16 06:53:50;;;;;;;6.47;2.60;;;;;;;;;;5559728;25;20000;-59
2024/04/16 06:56:16;;;;;;;5.13;2.67;;;;;;;;;;5542681;25;20037;-59
2024/04/16 06:58:42;;;;;;;5.53;2.88;;;;;;;;;;5560689;25;20453;-59
2024/04/16 07:01:09;;;;;;;4.15;2.42;;;;;;;;;;5563035;25;20361;-59
2024/04/16 07:03:35;;;;;;;5.10;3.00;;;;;;;;;;5550627;25;20720;-58
2024/04/16 07:06:01;;;;;;;7.20;2.95;;;;;;;;;;5536805;25;19997;-59
2024/04/16 07:08:27;;;;;;;6.25;2.83;;;;;;;;;;5561228;25;20421;-59
2024/04/16 07:10:54;;;;;;;10.45;3.33;;;;;;;;;;5562710;25;20007;-59
2024/04/16 07:13:20;;;;;;;7.82;3.47;;;;;;;;;;5562303;25;19997;-58
2024/04/16 07:15:46;;;;;;;8.43;2.95;;;;;;;;;;5537755;25;20012;-59
2024/04/16 07:18:12;;;;;;;9.40;3.70;;;;;;;;;;5562763;25;20037;-60
2024/04/16 07:20:38;;;;;;;9.10;4.10;;;;;;;;;;5551354;25;20298;-58
2024/04/16 07:23:04;;;;;;;5.68;3.10;;;;;;;;;;5551938;25;20000;-60
2024/04/16 07:25:30;;;;;;;7.25;3.47;;;;;;;;;;5551364;25;19996;-60
2024/04/16 07:27:56;;;;;;;10.15;3.22;;;;;;;;;;5561800;25;20024;-60
2024/04/16 07:30:22;;;;;;;5.47;3.35;;;;;;;;;;5562549;25;20001;-61
2024/04/16 07:32:48;;;;;;;8.73;3.75;;;;;;;;;;5561721;25;20361;-61
2024/04/16 07:35:15;;;;;;;5.50;3.70;;;;;;;;;;5561473;25;20401;-59
2024/04/16 07:37:41;;;;;;;9.70;3.72;;;;;;;;;;5550928;25;20358;-61
2024/04/16 07:40:07;;;;;;;8.18;3.78;;;;;;;;;;5544114;25;20051;-61
2024/04/16 07:42:33;;;;;;;7.60;3.95;;;;;;;;;;5545749;25;20011;-61
2024/04/16 07:44:59;;;;;;;10.30;3.03;;;;;;;;;;5551806;25;19997;-61
2024/04/16 07:47:25;;;;;;;11.38;4.13;;;;;;;;;;5548091;25;20003;-62
2024/04/16 07:49:51;;;;;;;13.90;4.15;;;;;;;;;;5550385;25;20004;-62
2024/04/16 07:52:16;;;;;;;10.93;3.92;;;;;;;;;;5550179;25;20097;-62
2024/04/16 07:54:42;;;;;;;10.73;3.58;;;;;;;;;;5547502;25;20007;-62
2024/04/16 07:57:08;;;;;;;13.32;4.07;;;;;;;;;;5547040;25;20124;-61
2024/04/16 07:59:34;;;;;;;14.38;3.90;;;;;;;;;;5562515;25;20015;-61
2024/04/16 08:02:00;;;;;;;7.45;3.22;;;;;;;;;;5562032;25;20043;-61
2024/04/16 08:04:26;;;;;;;6.70;3.45;;;;;;;;;;5551905;25;19998;-62
2024/04/16 08:06:52;;;;;;;8.00;3.40;;;;;;;;;;5554311;25;20468;-62
2024/04/16 08:09:18;;;;;;;10.32;3.75;;;;;;;;;;5550781;25;20008;-62
2024/04/16 08:11:44;;;;;;;8.13;3.10;;;;;;;;;;5559643;25;20437;-62
2024/04/16 08:14:11;;;;;;;9.40;3.83;;;;;;;;;;5561721;25;20077;-62
2024/04/16 08:16:37;;;;;;;8.68;3.58;;;;;;;;;;5537132;25;20004;-61
2024/04/16 08:19:03;;;;;;;9.98;4.13;;;;;;;;;;5562000;25;20007;-61
2024/04/16 08:21:29;;;;;;;5.57;3.65;;;;;;;;;;5551917;25;20013;-61
2024/04/16 08:23:55;;;;;;;6.60;3.65;;;;;;;;;;5559497;25;20011;-62
2024/04/16 08:26:21;;;;;;;9.52;4.15;;;;;;;;;;5537912;25;20005;-61
2024/04/16 08:28:47;;;;;;;11.23;4.00;;;;;;;;;;5558422;25;20010;-61
2024/04/16 08:31:14;;;;;;;11.40;4.20;;;;;;;;;;5553911;25;20516;-61
2024/04/16 08:33:40;;;;;;;7.43;3.35;;;;;;;;;;5549991;25;20069;-61
2024/04/16 08:36:06;;;;;;;11.98;3.58;;;;;;;;;;5559630;25;20005;-61
2024/04/16 08:38:32;;;;;;;8.32;3.67;;;;;;;;;;5548617;25;20516;-60
2024/04/16 08:41:02;;;;;;;10.32;4.07;;;;;;;;;;5561598;25;20444;-60
2024/04/16 08:43:31;;;;;;;11.02;3.63;;;;;;;;;;5535949;25;19993;-61
2024/04/16 08:45:58;;;;;;;7.88;3.25;;;;;;;;;;5561431;25;20020;-61
2024/04/16 08:48:24;;;;;;;7.05;3.45;;;;;;;;;;5557618;25;19997;-61
2024/04/16 08:50:50;;;;;;;9.95;3.70;;;;;;;;;;5545430;25;20001;-61
2024/04/16 08:53:18;;;;;;;10.52;4.10;;;;;;;;;;5552756;25;20004;-61
2024/04/16 08:55:45;;;;;;;7.55;3.85;;;;;;;;;;5561704;25;20003;-61
2024/04/16 08:58:11;;;;;;;10.77;3.55;;;;;;;;;;5561128;25;19997;-61
2024/04/16 09:00:37;;;;;;;16.02;3.88;;;;;;;;;;5561429;25;20004;-61
2024/04/16 09:03:04;;;;;;;5.60;2.90;;;;;;;;;;5560586;25;20410;-61
2024/04/16 09:05:30;;;;;;;10.23;2.83;;;;;;;;;;5555701;25;20045;-60
2024/04/16 09:07:56;;;;;;;6.40;2.97;;;;;;;;;;5558041;25;20432;-61
2024/04/16 09:10:23;;;;;;;5.97;2.35;;;;;;;;;;5542530;25;20336;-61
2024/04/16 09:12:49;;;;;;;6.07;2.88;;;;;;;;;;5560428;25;20004;-61
2024/04/16 09:15:16;;;;;;;10.20;2.97;;;;;;;;;;5544905;25;19997;-61
2024/04/16 09:17:45;;;;;;;8.30;2.30;;;;;;;;;;5552603;25;20064;-61
2024/04/16 09:20:13;;;;;;;14.48;3.15;;;;;;;;;;5561052;25;20020;-61
2024/04/16 09:22:39;;;;;;;5.82;2.75;;;;;;;;;;5533663;25;19994;-61
2024/04/16 09:25:07;;;;;;;13.40;2.40;;;;;;;;;;5540540;25;20104;-61
2024/04/16 09:27:33;;;;;;;8.00;2.55;;;;;;;;;;5539097;25;20045;-61
2024/04/16 09:30:06;;;;;;;8.18;2.15;;;;;;;;;;5559089;25;20009;-61
2024/04/16 09:32:32;;;;;;;10.82;2.15;;;;;;;;;;5560418;25;20072;-61
2024/04/16 09:34:58;;;;;;;6.90;2.00;;;;;;;;;;5560364;25;20024;-59
2024/04/16 09:37:24;;;;;;;10.65;2.53;;;;;;;;;;5558384;25;20072;-62
2024/04/16 09:39:52;;;;;;;5.38;1.83;;;;;;;;;;5550374;25;19998;-61
2024/04/16 09:42:20;;;;;;;7.95;2.15;;;;;;;;;;5554772;25;20024;-60
2024/04/16 09:44:47;;;;;;;5.47;2.28;;;;;;;;;;5554747;25;20452;-61
2024/04/16 09:47:14;;;;;;;7.00;2.40;;;;;;;;;;5564086;25;20000;-60
2024/04/16 09:49:41;;;;;;;11.68;1.90;;;;;;;;;;5552196;25;19997;-60
2024/04/16 09:52:07;;;;;;;7.15;1.77;;;;;;;;;;5555585;25;20001;-58
2024/04/16 09:54:34;;;;;;;8.20;1.83;;;;;;;;;;5564311;25;20008;-61
2024/04/16 09:57:01;;;;;;;6.13;1.45;;;;;;;;;;5554945;25;20001;-60
2024/04/16 09:59:29;;;;;;;4.93;1.77;;;;;;;;;;5564128;25;20032;-61
2024/04/16 10:01:55;;;;;;;6.03;1.63;;;;;;;;;;5563971;25;20003;-61
2024/04/16 10:04:22;;;;;;;5.35;1.48;;;;;;;;;;5538138;25;20469;-59
2024/04/16 10:06:49;;;;;;;4.40;1.33;;;;;;;;;;5558203;25;20470;-60
2024/04/16 10:09:17;;;;;;;8.10;1.65;;;;;;;;;;5549072;25;20093;-61
2024/04/16 10:11:44;;;;;;;7.88;1.77;;;;;;;;;;5551255;25;20010;-60
2024/04/16 10:14:10;;;;;;;9.13;1.73;;;;;;;;;;5545663;25;20026;-60
2024/04/16 10:16:36;;;;;;;6.47;2.00;;;;;;;;;;5543165;25;20015;-61
2024/04/16 10:19:04;;;;;;;6.20;1.60;;;;;;;;;;5563961;25;20040;-60
2024/04/16 10:21:39;;;;;;;7.07;1.85;;;;;;;;;;5562686;25;19996;-61
2024/04/16 10:24:09;;;;;;;8.38;1.33;;;;;;;;;;5554018;25;20000;-60
2024/04/16 10:26:36;;;;;;;5.28;1.30;;;;;;;;;;5563910;25;20072;-60
2024/04/16 10:29:02;;;;;;;4.85;1.35;;;;;;;;;;5538690;25;20001;-59
2024/04/16 10:31:38;;;;;;;10.43;1.30;;;;;;;;;;5553333;25;20426;-61
2024/04/16 10:34:03;;;;;;;6.75;1.95;;;;;;;;;;5550535;25;20517;-60
2024/04/16 10:36:30;;;;;;;5.88;1.30;;;;;;;;;;5563777;25;19997;-60
2024/04/16 10:38:56;;;;;;;8.15;1.35;;;;;;;;;;5550811;25;20001;-61
2024/04/16 10:41:28;;;;;;;2.75;1.15;;;;;;;;;;5563654;25;20448;-60
2024/04/16 10:43:57;;;;;;;3.80;1.15;;;;;;;;;;5547821;25;20553;-60
2024/04/16 10:46:23;;;;;;;3.35;1.40;;;;;;;;;;5563571;25;20016;-60
2024/04/16 10:48:52;;;;;;;5.22;1.40;;;;;;;;;;5558183;25;20073;-60
2024/04/16 10:51:18;;;;;;;3.30;1.00;;;;;;;;;;5550191;25;20017;-61
2024/04/16 10:53:44;;;;;;;4.50;1.48;;;;;;;;;;5560996;25;19997;-61
2024/04/16 10:56:10;;;;;;;2.42;0.88;;;;;;;;;;5543081;25;20003;-60
2024/04/16 10:58:36;;;;;;;9.65;1.98;;;;;;;;;;5548752;25;20441;-61
2024/04/16 11:01:02;;;;;;;6.43;1.55;;;;;;;;;;5563465;25;19997;-61
2024/04/16 11:03:28;;;;;;;8.77;1.50;;;;;;;;;;5554015;25;19993;-61
2024/04/16 11:05:56;;;;;;;8.43;1.20;;;;;;;;;;5542821;25;20042;-61
2024/04/16 11:08:22;;;;;;;3.63;1.10;;;;;;;;;;5553940;25;19993;-61
2024/04/16 11:10:51;;;;;;;4.53;1.27;;;;;;;;;;5562657;25;20057;-61
2024/04/16 11:13:18;;;;;;;5.22;1.30;;;;;;;;;;5532857;25;20008;-61
2024/04/16 11:15:44;;;;;;;6.85;1.45;;;;;;;;;;5551272;25;20337;-61
2024/04/16 11:18:10;;;;;;;6.22;1.52;;;;;;;;;;5561932;25;20096;-61
2024/04/16 11:20:36;;;;;;;3.10;1.10;;;;;;;;;;5563032;25;20332;-61
2024/04/16 11:23:04;;;;;;;6.90;1.02;;;;;;;;;;5546452;25;20012;-59
2024/04/16 11:25:30;;;;;;;5.05;1.40;;;;;;;;;;5538709;25;20001;-61
2024/04/16 11:27:56;;;;;;;5.25;1.20;;;;;;;;;;5561800;25;20102;-61
2024/04/16 11:30:22;;;;;;;8.63;1.40;;;;;;;;;;5562833;25;20409;-62
2024/04/16 11:32:48;;;;;;;3.00;1.17;;;;;;;;;;5550842;25;19993;-61
2024/04/16 11:35:15;;;;;;;2.13;0.80;;;;;;;;;;5562918;25;20441;-62
2024/04/16 11:37:44;;;;;;;5.18;0.80;;;;;;;;;;5557900;25;19997;-62
2024/04/16 11:40:10;;;;;;;6.53;1.25;;;;;;;;;;5549581;25;20092;-62
2024/04/16 11:42:36;;;;;;;5.82;0.90;;;;;;;;;;5562137;25;20011;-61
2024/04/16 11:45:03;;;;;;;5.75;1.05;;;;;;;;;;5562920;25;19997;-62
2024/04/16 11:47:29;;;;;;;3.58;1.23;;;;;;;;;;5562980;25;20004;-61
2024/04/16 11:49:57;;;;;;;3.08;1.25;;;;;;;;;;5558242;25;20001;-62
2024/04/16 11:52:23;;;;;;;4.45;0.98;;;;;;;;;;5553935;25;20451;-61
2024/04/16 11:54:49;;;;;;;4.00;0.85;;;;;;;;;;5540906;25;20001;-61
2024/04/16 11:57:17;;;;;;;2.83;0.70;;;;;;;;;;5530298;25;20077;-61
2024/04/16 11:59:43;;;;;;;2.47;1.50;;;;;;;;;;5545156;25;19997;-61
2024/04/16 12:02:09;;;;;;;4.20;0.90;;;;;;;;;;5555695;25;20448;-61
2024/04/16 12:04:35;;;;;;;1.30;0.65;;;;;;;;;;5548128;25;20469;-61
2024/04/16 12:07:01;;;;;;;6.60;1.02;;;;;;;;;;5556900;25;20021;-60
2024/04/16 12:09:27;;;;;;;5.78;0.85;;;;;;;;;;5535847;25;20012;-58
2024/04/16 12:11:53;;;;;;;2.20;0.73;;;;;;;;;;5543043;25;20028;-58
2024/04/16 12:14:22;;;;;;;3.10;1.20;;;;;;;;;;5562066;25;20505;-58
2024/04/16 12:16:48;;;;;;;6.70;1.27;;;;;;;;;;5562023;25;19996;-59
2024/04/16 12:19:14;;;;;;;4.95;1.10;;;;;;;;;;5562541;25;20008;-57
2024/04/16 12:21:40;;;;;;;4.10;1.25;;;;;;;;;;5554597;25;19992;-58
2024/04/16 12:24:07;;;;;;;1.73;1.00;;;;;;;;;;5561814;25;20377;-58
2024/04/16 12:26:32;;;;;;;3.95;1.38;;;;;;;;;;5556654;25;20012;-58
2024/04/16 12:28:59;;;;;;;2.83;1.15;;;;;;;;;;5541024;25;20017;-58
2024/04/16 12:31:25;;;;;;;2.80;1.17;;;;;;;;;;5543712;25;20689;-58
2024/04/16 12:33:51;;;;;;;4.28;1.17;;;;;;;;;;5561360;25;19996;-58
2024/04/16 12:36:17;;;;;;;2.10;0.90;;;;;;;;;;5533455;25;20019;-57
2024/04/16 12:38:44;;;;;;;4.15;1.17;;;;;;;;;;5530527;25;19997;-57
2024/04/16 12:41:10;;;;;;;2.08;0.80;;;;;;;;;;5559657;25;20065;-59
2024/04/16 12:43:36;;;;;;;4.97;0.77;;;;;;;;;;5544303;25;20345;-58
2024/04/16 12:46:02;;;;;;;1.38;0.65;;;;;;;;;;5557177;25;20067;-58
2024/04/16 12:48:30;;;;;;;2.58;0.75;;;;;;;;;;5560641;25;20028;-58
2024/04/16 12:50:56;;;;;;;2.25;0.70;;;;;;;;;;5540063;25;19997;-58
2024/04/16 12:53:22;;;;;;;2.88;1.15;;;;;;;;;;5548963;25;20004;-59
2024/04/16 12:55:48;;;;;;;1.55;0.90;;;;;;;;;;5555133;25;20012;-58
2024/04/16 12:58:14;;;;;;;4.72;0.90;;;;;;;;;;5544867;25;19997;-59
2024/04/16 13:00:40;;;;;;;1.15;0.80;;;;;;;;;;5551594;25;20011;-59
2024/04/16 13:03:09;;;;;;;1.40;0.65;;;;;;;;;;5561239;25;20011;-60
2024/04/16 13:05:35;;;;;;;2.05;0.82;;;;;;;;;;5554501;25;20009;-58
2024/04/16 13:08:03;;;;;;;1.48;0.80;;;;;;;;;;5539184;25;19993;-59
2024/04/16 13:10:29;;;;;;;1.98;0.80;;;;;;;;;;5560946;25;20432;-58
2024/04/16 13:12:55;;;;;;;2.47;0.82;;;;;;;;;;5551655;25;20002;-59
2024/04/16 13:15:21;;;;;;;2.25;0.73;;;;;;;;;;5549714;25;20397;-59
2024/04/16 13:17:47;;;;;;;2.55;1.27;;;;;;;;;;5540015;25;20440;-59
2024/04/16 13:20:14;;;;;;;1.95;0.70;;;;;;;;;;5559101;25;20006;-58
2024/04/16 13:22:40;;;;;;;4.13;0.68;;;;;;;;;;5557959;25;19997;-57
2024/04/16 13:25:06;;;;;;;0.93;0.43;;;;;;;;;;5551930;25;20325;-58
2024/04/16 13:27:33;;;;;;;1.98;0.80;;;;;;;;;;5552696;25;19993;-58
2024/04/16 13:29:58;;;;;;;4.43;1.00;;;;;;;;;;5545304;25;20109;-62
2024/04/16 13:32:25;;;;;;;2.78;1.05;;;;;;;;;;5533847;25;20005;-61
2024/04/16 13:34:51;;;;;;;4.22;0.93;;;;;;;;;;5526397;25;20005;-62
2024/04/16 13:37:16;;;;;;;2.25;0.88;;;;;;;;;;5534877;25;20006;-63
2024/04/16 13:39:42;;;;;;;3.28;1.10;;;;;;;;;;5553662;25;20068;-61
2024/04/16 13:42:09;;;;;;;3.42;1.13;;;;;;;;;;5527847;25;20341;-61
2024/04/16 13:44:36;;;;;;;1.85;0.90;;;;;;;;;;5550207;25;20013;-62
2024/04/16 13:47:02;;;;;;;1.95;0.63;;;;;;;;;;5549275;25;20036;-62
2024/04/16 13:49:28;;;;;;;4.50;0.80;;;;;;;;;;5549960;25;19996;-61
2024/04/16 13:51:54;;;;;;;2.35;0.80;;;;;;;;;;5545397;25;20008;-61
2024/04/16 13:54:20;;;;;;;1.38;0.75;;;;;;;;;;5534491;25;20029;-60
2024/04/16 13:56:47;;;;;;;0.90;0.70;;;;;;;;;;5558948;25;20012;-61
2024/04/16 13:59:13;;;;;;;4.63;0.90;;;;;;;;;;5527606;25;20378;-60
2024/04/16 14:01:39;;;;;;;2.20;0.73;;;;;;;;;;5523951;25;20338;-61
2024/04/16 14:04:05;;;;;;;2.63;1.15;;;;;;;;;;5536803;25;20015;-61
2024/04/16 14:06:32;;;;;;;1.30;0.90;;;;;;;;;;5546604;25;20032;-61
2024/04/16 14:08:58;;;;;;;1.88;1.00;;;;;;;;;;5544079;25;20005;-61
2024/04/16 14:11:24;;;;;;;2.00;0.90;;;;;;;;;;5533030;25;20485;-61
2024/04/16 14:13:50;;;;;;;1.77;0.93;;;;;;;;;;5525561;25;20062;-61
2024/04/16 14:16:16;;;;;;;1.58;0.80;;;;;;;;;;5537015;25;20450;-61
2024/04/16 14:18:49;;;;;;;1.35;0.68;;;;;;;;;;5539284;25;20001;-61
2024/04/16 14:21:15;;;;;;;1.05;0.70;;;;;;;;;;5530982;25;19993;-61
2024/04/16 14:23:41;;;;;;;1.90;0.60;;;;;;;;;;5530773;25;20185;-61
2024/04/16 14:26:07;;;;;;;8.52;1.23;;;;;;;;;;5536603;25;20004;-61
2024/04/16 14:28:33;;;;;;;1.83;0.80;;;;;;;;;;5540581;25;20091;-59
2024/04/16 14:30:59;;;;;;;1.90;0.60;;;;;;;;;;5539789;25;20000;-59
2024/04/16 14:33:25;;;;;;;1.60;0.55;;;;;;;;;;5544422;25;20440;-60
2024/04/16 14:35:51;;;;;;;1.30;0.65;;;;;;;;;;5542245;25;19994;-60
2024/04/16 14:38:17;;;;;;;1.70;0.60;;;;;;;;;;5550506;25;20772;-58